createdAt,value
2018-09-21T00:01:28.912Z,66.50
2018-09-21T00:04:02.989Z,66.80
2018-09-21T00:06:31.302Z,66.60
2018-09-21T00:08:59.566Z,67.00
2018-09-21T00:11:27.857Z,67.10
2018-09-21T00:13:56.149Z,67.40
2018-09-21T00:16:24.668Z,67.20
2018-09-21T00:18:53.034Z,67.30
2018-09-21T00:21:21.428Z,67.60
2018-09-21T00:23:49.780Z,67.80
2018-09-21T00:26:18.223Z,67.90
2018-09-21T00:28:46.534Z,67.60
2018-09-21T00:31:14.897Z,67.40
2018-09-21T00:33:43.177Z,67.90
2018-09-21T00:36:11.586Z,67.80
2018-09-21T00:38:39.927Z,68.10
2018-09-21T00:41:08.212Z,68.00
2018-09-21T00:43:36.580Z,68.30
2018-09-21T00:46:05.119Z,68.30
2018-09-21T00:48:33.720Z,68.80
2018-09-21T00:51:02.008Z,68.60
2018-09-21T00:53:30.290Z,68.40
2018-09-21T00:55:58.598Z,68.40
2018-09-21T00:58:26.949Z,68.60
2018-09-21T01:00:55.241Z,68.40
2018-09-21T01:03:23.648Z,68.40
2018-09-21T01:05:52.031Z,68.60
2018-09-21T01:08:20.381Z,68.90
2018-09-21T01:10:48.748Z,69.00
2018-09-21T01:13:17.032Z,69.50
2018-09-21T01:15:45.403Z,69.50
2018-09-21T01:18:13.781Z,69.50
2018-09-21T01:20:42.067Z,69.70
2018-09-21T01:23:10.443Z,70.00
2018-09-21T01:25:38.727Z,69.30
2018-09-21T01:28:07.086Z,69.50
2018-09-21T01:30:35.365Z,69.80
2018-09-21T01:33:03.668Z,69.70
2018-09-21T01:35:32.069Z,69.80
2018-09-21T01:38:00.388Z,69.90
2018-09-21T01:40:28.700Z,70.00
2018-09-21T01:42:57.052Z,70.30
2018-09-21T01:45:25.364Z,70.20
2018-09-21T01:47:53.707Z,70.30
2018-09-21T01:50:22.081Z,70.30
2018-09-21T01:52:50.364Z,70.40
2018-09-21T01:55:18.660Z,70.50
2018-09-21T01:57:47.032Z,70.70
2018-09-21T02:00:15.420Z,70.40
2018-09-21T02:02:43.829Z,70.80
2018-09-21T02:05:13.283Z,71.00
2018-09-21T02:07:41.567Z,71.20
2018-09-21T02:10:09.846Z,72.00
2018-09-21T02:12:38.208Z,72.30
2018-09-21T02:15:06.505Z,73.10
2018-09-21T02:17:34.909Z,73.30
2018-09-21T02:20:03.278Z,73.00
2018-09-21T02:22:31.533Z,73.10
2018-09-21T02:25:00.060Z,73.10
2018-09-21T02:27:28.391Z,73.70
2018-09-21T02:29:56.660Z,73.80
2018-09-21T02:32:25.213Z,73.90
2018-09-21T02:34:53.527Z,74.00
2018-09-21T02:37:21.799Z,74.90
2018-09-21T02:39:50.084Z,74.40
2018-09-21T02:42:18.372Z,74.60
2018-09-21T02:44:46.721Z,74.50
2018-09-21T02:47:15.038Z,74.40
2018-09-21T02:49:43.404Z,74.80
2018-09-21T02:52:11.858Z,75.10
2018-09-21T02:54:40.168Z,75.10
2018-09-21T02:57:08.536Z,75.00
2018-09-21T02:59:36.888Z,74.70
2018-09-21T03:02:05.205Z,74.60
2018-09-21T03:04:35.901Z,75.00
2018-09-21T03:07:04.230Z,75.70
2018-09-21T03:09:39.044Z,76.00
2018-09-21T03:12:07.448Z,76.20
2018-09-21T03:17:34.050Z,76.60
2018-09-21T03:20:02.416Z,76.90
2018-09-21T03:22:30.691Z,77.10
2018-09-21T03:24:59.008Z,77.00
2018-09-21T03:27:27.239Z,77.00
2018-09-21T03:29:55.501Z,77.10
2018-09-21T03:32:23.829Z,77.10
2018-09-21T03:34:52.119Z,77.10
2018-09-21T03:37:20.468Z,77.40
2018-09-21T03:39:48.856Z,77.10
2018-09-21T03:42:17.233Z,77.10
2018-09-21T03:44:45.765Z,77.10
2018-09-21T03:47:14.224Z,77.30
2018-09-21T03:49:42.606Z,77.70
2018-09-21T03:52:11.008Z,78.60
2018-09-21T03:54:39.341Z,78.00
2018-09-21T03:57:07.713Z,78.10
2018-09-21T03:59:37.011Z,78.10
2018-09-21T04:02:05.454Z,78.00
2018-09-21T04:04:33.762Z,77.70
2018-09-21T04:07:02.242Z,77.70
2018-09-21T04:09:30.628Z,77.90
2018-09-21T04:11:58.998Z,77.90
2018-09-21T04:14:28.417Z,77.80
2018-09-21T04:16:56.789Z,77.90
2018-09-21T04:19:25.204Z,77.50
2018-09-21T04:21:53.520Z,77.50
2018-09-21T04:24:21.824Z,77.60
2018-09-21T04:26:50.208Z,77.30
2018-09-21T04:29:18.573Z,77.10
2018-09-21T04:31:46.854Z,77.30
2018-09-21T04:34:15.157Z,76.90
2018-09-21T04:36:43.520Z,76.90
2018-09-21T04:39:12.744Z,76.90
2018-09-21T04:41:42.092Z,76.90
2018-09-21T04:44:10.718Z,76.60
2018-09-21T04:46:39.126Z,76.80
2018-09-21T04:49:07.527Z,76.60
2018-09-21T04:51:35.832Z,76.30
2018-09-21T04:54:04.126Z,76.20
2018-09-21T04:56:32.482Z,76.10
2018-09-21T04:59:00.762Z,76.10
2018-09-21T05:01:29.157Z,75.80
2018-09-21T05:03:57.529Z,75.70
2018-09-21T05:06:25.908Z,75.50
2018-09-21T05:08:54.289Z,75.50
2018-09-21T05:11:22.837Z,75.50
2018-09-21T05:13:51.197Z,75.70
2018-09-21T05:16:19.567Z,75.80
2018-09-21T05:18:48.003Z,76.00
2018-09-21T05:21:16.909Z,76.10
2018-09-21T05:23:45.272Z,76.80
2018-09-21T05:26:13.824Z,76.80
2018-09-21T05:28:42.168Z,76.80
2018-09-21T05:31:10.519Z,76.70
2018-09-21T05:33:38.911Z,77.00
2018-09-21T05:36:07.291Z,76.30
2018-09-21T05:38:35.708Z,76.20
2018-09-21T05:41:04.052Z,76.60
2018-09-21T05:43:32.395Z,76.90
2018-09-21T05:46:00.685Z,77.40
2018-09-21T05:48:29.100Z,77.20
2018-09-21T05:50:57.480Z,77.60
2018-09-21T05:53:25.874Z,77.00
2018-09-21T05:55:54.276Z,77.50
2018-09-21T05:58:22.579Z,78.10
2018-09-21T06:00:50.879Z,78.80
2018-09-21T06:03:19.283Z,78.70
2018-09-21T06:05:47.644Z,79.00
2018-09-21T06:08:15.976Z,79.00
2018-09-21T06:10:44.268Z,78.80
2018-09-21T06:13:12.659Z,77.80
2018-09-21T06:15:40.967Z,77.50
2018-09-21T06:18:09.357Z,77.50
2018-09-21T06:20:37.729Z,78.20
2018-09-21T06:23:06.277Z,77.80
2018-09-21T06:25:34.608Z,77.10
2018-09-21T06:28:02.937Z,76.90
2018-09-21T06:30:31.228Z,75.70
2018-09-21T06:32:59.506Z,75.40
2018-09-21T06:35:27.757Z,74.90
2018-09-21T06:37:56.136Z,75.00
2018-09-21T06:40:24.524Z,73.60
2018-09-21T06:42:52.784Z,73.90
2018-09-21T06:45:21.209Z,74.80
2018-09-21T06:47:49.563Z,74.20
2018-09-21T06:50:18.027Z,73.90
2018-09-21T06:52:46.341Z,72.90
2018-09-21T06:55:14.736Z,72.80
2018-09-21T06:57:43.112Z,72.40
2018-09-21T07:00:11.386Z,71.70
2018-09-21T07:02:39.817Z,70.10
2018-09-21T07:05:12.929Z,69.60
2018-09-21T07:07:41.424Z,68.00
2018-09-21T07:10:09.950Z,67.80
2018-09-21T07:12:38.268Z,68.00
2018-09-21T07:15:06.838Z,68.20
2018-09-21T07:17:35.217Z,68.40
2018-09-21T07:20:13.731Z,66.90
2018-09-21T07:22:42.093Z,66.90
2018-09-21T07:25:10.404Z,67.40
2018-09-21T07:27:38.798Z,66.90
2018-09-21T07:30:07.221Z,66.00
2018-09-21T07:32:35.727Z,65.20
2018-09-21T07:35:04.216Z,64.40
2018-09-21T07:37:33.912Z,62.80
2018-09-21T07:40:02.436Z,62.30
2018-09-21T07:42:30.797Z,60.60
2018-09-21T07:44:59.217Z,60.50
2018-09-21T07:47:27.591Z,60.20
2018-09-21T07:49:55.974Z,59.50
2018-09-21T07:52:24.759Z,59.20
2018-09-21T07:54:53.146Z,57.50
2018-09-21T07:57:21.569Z,57.60
2018-09-21T07:59:50.005Z,57.50
2018-09-21T08:02:18.338Z,56.60
2018-09-21T08:04:46.760Z,57.90
2018-09-21T08:07:15.133Z,60.00
2018-09-21T08:09:43.496Z,56.60
2018-09-21T08:12:11.949Z,55.50
2018-09-21T08:14:40.361Z,54.60
2018-09-21T08:17:08.777Z,55.40
2018-09-21T08:19:38.252Z,54.80
2018-09-21T08:22:06.589Z,55.40
2018-09-21T08:24:34.902Z,55.10
2018-09-21T08:27:03.219Z,55.00
2018-09-21T08:29:31.756Z,55.10
2018-09-21T08:32:00.119Z,55.10
2018-09-21T08:34:28.474Z,54.20
2018-09-21T08:36:56.846Z,54.10
2018-09-21T08:39:25.188Z,52.40
2018-09-21T08:41:53.496Z,53.00
2018-09-21T08:44:21.813Z,52.20
2018-09-21T08:46:50.198Z,52.20
2018-09-21T08:49:18.547Z,50.30
2018-09-21T08:51:46.828Z,49.10
2018-09-21T08:54:15.210Z,48.70
2018-09-21T08:56:43.593Z,48.20
2018-09-21T08:59:11.905Z,48.30
2018-09-21T09:01:40.275Z,48.40
2018-09-21T09:04:08.694Z,48.50
2018-09-21T09:06:37.012Z,48.80
2018-09-21T09:09:07.909Z,49.70
2018-09-21T09:11:36.379Z,48.70
2018-09-21T09:14:04.751Z,48.80
2018-09-21T09:16:33.108Z,47.90
2018-09-21T09:19:01.394Z,47.90
2018-09-21T09:21:29.747Z,46.80
2018-09-21T09:23:58.164Z,46.30
2018-09-21T09:26:26.498Z,46.30
2018-09-21T09:28:54.791Z,46.60
2018-09-21T09:31:23.203Z,46.70
2018-09-21T09:33:51.535Z,46.80
2018-09-21T09:36:19.800Z,46.50
2018-09-21T09:38:48.458Z,46.70
2018-09-21T09:41:16.716Z,46.70
2018-09-21T09:43:45.029Z,46.50
2018-09-21T09:46:13.307Z,45.40
2018-09-21T09:48:41.657Z,45.70
2018-09-21T09:51:09.984Z,44.20
2018-09-21T09:53:38.324Z,43.30
2018-09-21T09:56:06.649Z,42.90
2018-09-21T09:58:34.945Z,41.80
2018-09-21T10:01:03.771Z,41.50
2018-09-21T10:03:32.064Z,42.10
2018-09-21T10:06:00.320Z,41.50
2018-09-21T10:08:35.138Z,42.50
2018-09-21T10:11:03.439Z,41.50
2018-09-21T10:13:31.742Z,40.30
2018-09-21T10:16:00.125Z,40.60
2018-09-21T10:18:28.398Z,40.90
2018-09-21T10:20:56.761Z,41.80
2018-09-21T10:23:25.153Z,39.40
2018-09-21T10:25:53.487Z,39.80
2018-09-21T10:28:21.817Z,38.60
2018-09-21T10:30:50.116Z,39.10
2018-09-21T10:33:18.559Z,39.20
2018-09-21T10:35:46.964Z,38.90
2018-09-21T10:38:15.210Z,39.10
2018-09-21T10:40:43.567Z,39.70
2018-09-21T10:43:12.078Z,39.60
2018-09-21T10:45:40.343Z,38.80
2018-09-21T10:48:08.653Z,38.90
2018-09-21T10:50:36.968Z,39.40
2018-09-21T10:53:05.436Z,39.40
2018-09-21T10:55:33.740Z,40.60
2018-09-21T10:58:29.703Z,39.00
2018-09-21T11:00:58.388Z,39.50
2018-09-21T11:03:28.277Z,39.10
2018-09-21T11:05:56.626Z,39.40
2018-09-21T11:08:24.935Z,39.40
2018-09-21T11:10:53.234Z,39.30
2018-09-21T11:13:21.841Z,39.80
2018-09-21T11:15:50.254Z,39.70
2018-09-21T11:18:18.754Z,40.50
2018-09-21T11:20:47.597Z,40.30
2018-09-21T11:23:16.038Z,40.20
2018-09-21T11:25:57.102Z,40.40
2018-09-21T11:28:26.559Z,40.20
2018-09-21T11:31:00.580Z,40.30
2018-09-21T11:33:32.905Z,40.30
2018-09-21T11:36:02.854Z,40.70
2018-09-21T11:38:31.517Z,40.30
2018-09-21T11:41:00.073Z,40.60
2018-09-21T11:43:28.454Z,40.80
2018-09-21T11:46:00.500Z,40.20
2018-09-21T11:48:28.866Z,40.10
2018-09-21T11:50:57.196Z,40.50
2018-09-21T11:53:26.535Z,40.50
2018-09-21T11:55:55.079Z,40.70
2018-09-21T11:58:23.513Z,40.50
2018-09-21T12:00:51.860Z,40.60
2018-09-21T12:03:20.224Z,40.70
2018-09-21T12:05:49.616Z,39.90
2018-09-21T12:08:18.103Z,40.30
2018-09-21T12:10:46.721Z,40.30
2018-09-21T12:13:15.273Z,40.50
2018-09-21T12:15:43.906Z,40.40
2018-09-21T12:18:12.412Z,40.30
2018-09-21T12:20:41.169Z,40.70
2018-09-21T12:23:09.705Z,40.80
2018-09-21T12:25:38.325Z,40.70
2018-09-21T12:28:06.782Z,40.80
2018-09-21T12:30:35.288Z,40.90
2018-09-21T12:33:03.576Z,41.00
2018-09-21T12:35:32.003Z,41.10
2018-09-21T12:38:00.375Z,40.90
2018-09-21T12:40:29.746Z,41.20
2018-09-21T12:42:59.134Z,41.10
2018-09-21T12:45:27.506Z,41.20
2018-09-21T12:47:55.857Z,41.10
2018-09-21T12:50:24.286Z,41.80
2018-09-21T12:52:52.617Z,41.50
2018-09-21T12:55:21.035Z,42.00
2018-09-21T12:57:49.435Z,41.60
2018-09-21T13:00:17.776Z,41.80
2018-09-21T13:02:46.185Z,42.30
2018-09-21T13:05:15.601Z,42.10
2018-09-21T13:07:43.901Z,42.30
2018-09-21T13:10:12.291Z,43.00
2018-09-21T13:12:40.677Z,42.50
2018-09-21T13:15:09.036Z,42.30
2018-09-21T13:17:37.424Z,42.70
2018-09-21T13:20:06.629Z,42.60
2018-09-21T13:22:35.003Z,43.20
2018-09-21T13:25:03.437Z,44.50
2018-09-21T13:27:31.820Z,45.40
2018-09-21T13:30:00.316Z,45.80
2018-09-21T13:32:28.631Z,46.00
2018-09-21T13:34:57.031Z,46.40
2018-09-21T13:37:25.374Z,46.60
2018-09-21T13:39:53.853Z,46.90
2018-09-21T13:42:22.379Z,47.00
2018-09-21T13:44:50.867Z,47.20
2018-09-21T13:47:20.514Z,47.40
2018-09-21T13:49:48.968Z,47.50
2018-09-21T13:52:17.452Z,47.90
2018-09-21T13:54:45.803Z,47.80
2018-09-21T13:57:49.773Z,47.70
2018-09-21T14:00:18.189Z,48.00
2018-09-21T14:02:46.612Z,48.10
2018-09-21T14:05:14.909Z,48.00
2018-09-21T14:07:43.458Z,48.20
2018-09-21T14:10:12.350Z,48.10
2018-09-21T14:12:41.012Z,48.50
2018-09-21T14:15:09.445Z,48.70
2018-09-21T14:17:37.829Z,48.80
2018-09-21T14:20:07.501Z,49.00
2018-09-21T14:22:36.044Z,48.80
2018-09-21T14:25:04.634Z,49.00
2018-09-21T14:27:33.222Z,49.20
2018-09-21T14:30:02.605Z,49.40
2018-09-21T14:32:30.987Z,49.60
2018-09-21T14:34:59.471Z,49.50
2018-09-21T14:37:27.855Z,49.80
2018-09-21T14:39:56.439Z,49.90
2018-09-21T14:42:24.853Z,50.00
2018-09-21T14:44:53.241Z,50.00
2018-09-21T14:47:21.592Z,50.10
2018-09-21T14:49:50.013Z,50.00
2018-09-21T14:52:18.346Z,50.40
2018-09-21T14:54:46.738Z,51.40
2018-09-21T14:57:15.209Z,52.10
2018-09-21T14:59:43.681Z,52.80
2018-09-21T15:02:12.133Z,53.10
2018-09-21T15:04:40.463Z,54.70
2018-09-21T15:07:08.870Z,54.40
2018-09-21T15:09:37.224Z,54.10
2018-09-21T15:12:05.613Z,53.50
2018-09-21T15:14:33.970Z,53.80
2018-09-21T15:17:02.461Z,54.20
2018-09-21T15:19:30.872Z,54.80
2018-09-21T15:21:59.283Z,54.80
2018-09-21T15:24:27.725Z,54.30
2018-09-21T15:26:56.084Z,54.90
2018-09-21T15:29:24.590Z,55.00
2018-09-21T15:31:52.931Z,54.90
2018-09-21T15:34:21.269Z,55.00
2018-09-21T15:36:49.715Z,55.10
2018-09-21T15:39:18.056Z,55.30
2018-09-21T15:41:46.439Z,54.70
2018-09-21T15:44:14.820Z,54.20
2018-09-21T15:46:43.195Z,54.60
2018-09-21T15:49:12.719Z,54.20
2018-09-21T15:51:41.093Z,54.60
2018-09-21T15:54:09.569Z,54.90
2018-09-21T15:56:38.974Z,54.90
2018-09-21T15:59:07.391Z,54.80
2018-09-21T16:01:36.075Z,55.30
2018-09-21T16:04:04.421Z,56.40
2018-09-21T16:06:33.261Z,56.70
2018-09-21T16:09:05.205Z,57.30
2018-09-21T16:11:33.553Z,57.90
2018-09-21T16:14:01.984Z,57.80
2018-09-21T16:16:30.348Z,58.20
2018-09-21T16:18:58.679Z,58.00
2018-09-21T16:21:27.030Z,59.50
2018-09-21T16:23:55.333Z,61.20
2018-09-21T16:26:23.673Z,64.20
2018-09-21T16:28:51.960Z,65.70
2018-09-21T16:31:20.325Z,65.00
2018-09-21T16:33:48.931Z,65.90
2018-09-21T16:36:17.237Z,67.30
2018-09-21T16:38:45.557Z,67.10
2018-09-21T16:41:13.905Z,67.60
2018-09-21T16:43:42.323Z,68.80
2018-09-21T16:46:10.646Z,69.30
2018-09-21T16:48:38.920Z,69.50
2018-09-21T16:51:07.575Z,70.10
2018-09-21T16:53:35.847Z,69.90
2018-09-21T16:56:06.034Z,70.70
2018-09-21T16:58:34.396Z,70.30
2018-09-21T17:01:02.891Z,71.00
2018-09-21T17:03:33.607Z,72.10
2018-09-21T17:06:01.897Z,71.80
2018-09-21T17:08:30.303Z,71.90
2018-09-21T17:10:58.668Z,72.20
2018-09-21T17:13:27.100Z,72.10
2018-09-21T17:15:55.472Z,71.60
2018-09-21T17:18:23.853Z,69.60
2018-09-21T17:20:52.155Z,68.70
2018-09-21T17:23:20.551Z,68.70
2018-09-21T17:25:48.864Z,69.00
2018-09-21T17:28:17.553Z,69.50
2018-09-21T17:30:45.892Z,69.20
2018-09-21T17:33:14.207Z,68.50
2018-09-21T17:35:42.575Z,69.10
2018-09-21T17:38:11.112Z,68.10
2018-09-21T17:40:39.520Z,68.80
2018-09-21T17:43:14.624Z,68.70
2018-09-21T17:45:42.929Z,68.40
2018-09-21T17:48:11.246Z,68.50
2018-09-21T17:50:39.652Z,68.40
2018-09-21T17:53:08.001Z,68.00
2018-09-21T17:55:36.474Z,69.20
2018-09-21T17:59:07.828Z,69.20
2018-09-21T18:01:36.117Z,69.20
2018-09-21T18:04:04.493Z,68.60
2018-09-21T18:06:32.787Z,68.80
2018-09-21T18:09:01.087Z,68.50
2018-09-21T18:11:29.378Z,68.80
2018-09-21T18:13:57.688Z,68.70
2018-09-21T18:16:26.217Z,68.90
2018-09-21T18:18:54.525Z,69.40
2018-09-21T18:21:22.979Z,70.00
2018-09-21T18:23:51.292Z,69.80
2018-09-21T18:26:19.653Z,69.50
2018-09-21T18:28:47.975Z,69.00
2018-09-21T18:31:16.311Z,69.00
2018-09-21T18:33:44.582Z,69.30
2018-09-21T18:36:12.974Z,68.90
2018-09-21T18:38:41.278Z,69.00
2018-09-21T18:41:09.567Z,68.50
2018-09-21T18:43:37.921Z,69.30
2018-09-21T18:46:06.310Z,68.60
2018-09-21T18:48:34.653Z,68.50
2018-09-21T18:51:02.966Z,69.50
2018-09-21T18:53:31.280Z,69.40
2018-09-21T18:55:59.587Z,70.20
2018-09-21T18:58:27.901Z,70.10
2018-09-21T19:00:56.233Z,70.20
2018-09-21T19:03:24.560Z,70.70
2018-09-21T19:05:52.898Z,70.30
2018-09-21T19:08:21.209Z,69.70
2018-09-21T19:10:49.526Z,69.50
2018-09-21T19:13:17.853Z,70.40
2018-09-21T19:15:46.193Z,69.50
2018-09-21T19:18:14.511Z,69.60
2018-09-21T19:20:42.887Z,69.50
2018-09-21T19:23:11.190Z,70.20
2018-09-21T19:25:39.484Z,70.40
2018-09-21T19:28:07.800Z,70.30
2018-09-21T19:30:36.113Z,70.00
2018-09-21T19:33:05.136Z,70.00
2018-09-21T19:35:33.446Z,70.00
2018-09-21T19:38:01.864Z,70.00
2018-09-21T19:40:30.190Z,69.60
2018-09-21T19:42:58.617Z,69.80
2018-09-21T19:45:26.999Z,69.90
2018-09-21T19:47:55.363Z,71.60
2018-09-21T19:50:23.688Z,70.60
2018-09-21T19:52:52.093Z,69.80
2018-09-21T19:55:20.479Z,69.10
2018-09-21T19:57:48.827Z,69.20
2018-09-21T20:00:17.219Z,69.10
2018-09-21T20:02:45.597Z,68.90
2018-09-21T20:05:13.985Z,69.10
2018-09-21T20:07:42.370Z,69.30
2018-09-21T20:10:10.820Z,69.00
2018-09-21T20:12:39.268Z,68.90
2018-09-21T20:15:07.605Z,69.00
2018-09-21T20:17:36.982Z,69.00
2018-09-21T20:20:05.415Z,69.10
2018-09-21T20:22:33.740Z,69.60
2018-09-21T20:25:04.684Z,69.40
2018-09-21T20:27:34.619Z,69.80
2018-09-21T20:30:10.982Z,70.30
2018-09-21T20:32:44.643Z,70.40
2018-09-21T20:35:12.922Z,70.40
2018-09-21T20:37:41.185Z,70.30
2018-09-21T20:40:09.844Z,70.40
2018-09-21T20:42:38.156Z,70.90
2018-09-21T20:45:06.491Z,70.70
2018-09-21T20:47:34.777Z,70.60
2018-09-21T20:50:03.378Z,70.70
2018-09-21T20:52:31.656Z,71.10
2018-09-21T20:54:59.971Z,71.30
2018-09-21T20:57:28.350Z,71.40
2018-09-21T20:59:56.760Z,71.50
2018-09-21T21:02:25.209Z,71.10
2018-09-21T21:04:53.634Z,71.30
2018-09-21T21:07:22.045Z,71.70
2018-09-21T21:09:51.120Z,71.50
2018-09-21T21:12:19.536Z,71.70
2018-09-21T21:14:47.950Z,71.80
2018-09-21T21:17:16.315Z,71.50
2018-09-21T21:19:44.737Z,71.50
2018-09-21T21:22:13.156Z,71.50
2018-09-21T21:24:41.527Z,71.30
2018-09-21T21:27:10.004Z,71.20
2018-09-21T21:29:39.109Z,71.70
2018-09-21T21:32:07.491Z,71.90
2018-09-21T21:34:35.875Z,71.80
2018-09-21T21:37:04.513Z,72.10
2018-09-21T21:39:32.772Z,72.20
2018-09-21T21:42:01.094Z,72.20
2018-09-21T21:44:29.378Z,72.00
2018-09-21T21:46:57.708Z,71.90
2018-09-21T21:49:26.230Z,71.80
2018-09-21T21:51:54.549Z,72.00
2018-09-21T21:54:23.043Z,72.60
2018-09-21T21:56:51.342Z,71.90
2018-09-21T21:59:19.660Z,72.30
2018-09-21T22:01:48.874Z,72.20
2018-09-21T22:04:18.271Z,72.60
2018-09-21T22:06:46.668Z,72.80
2018-09-21T22:09:14.945Z,72.40
2018-09-21T22:11:48.523Z,72.30
2018-09-21T22:14:16.806Z,72.30
2018-09-21T22:16:45.105Z,72.10
2018-09-21T22:19:13.378Z,72.00
2018-09-21T22:21:41.677Z,72.20
2018-09-21T22:24:09.945Z,71.50
2018-09-21T22:26:38.380Z,71.60
2018-09-21T22:29:06.688Z,71.90
2018-09-21T22:31:35.018Z,71.70
2018-09-21T22:34:03.364Z,71.80
2018-09-21T22:36:31.686Z,72.00
2018-09-21T22:39:00.079Z,72.00
2018-09-21T22:41:28.394Z,72.10
2018-09-21T22:43:56.694Z,72.40
2018-09-21T22:46:24.976Z,72.30
2018-09-21T22:48:54.457Z,72.30
2018-09-21T22:51:22.869Z,72.20
2018-09-21T22:53:51.154Z,72.40
2018-09-21T22:56:19.434Z,72.70
2018-09-21T22:58:47.764Z,72.30
2018-09-21T23:01:16.048Z,72.20
2018-09-21T23:03:44.459Z,72.10
2018-09-21T23:06:12.869Z,71.90
2018-09-21T23:08:41.215Z,71.70
2018-09-21T23:11:09.607Z,70.70
2018-09-21T23:13:37.976Z,69.80
2018-09-21T23:16:06.390Z,69.10
2018-09-21T23:18:34.676Z,69.60
2018-09-21T23:21:03.079Z,69.30
2018-09-21T23:23:31.391Z,69.10
2018-09-21T23:25:59.718Z,69.50
2018-09-21T23:28:27.990Z,69.40
2018-09-21T23:31:00.350Z,69.20
2018-09-21T23:33:34.617Z,68.80
2018-09-21T23:36:07.896Z,68.40
2018-09-21T23:38:36.285Z,68.10
2018-09-21T23:41:04.574Z,67.80
2018-09-21T23:43:32.878Z,67.80
2018-09-21T23:46:01.157Z,67.90
2018-09-21T23:48:29.472Z,67.30
2018-09-21T23:50:57.737Z,67.30
2018-09-21T23:53:26.131Z,67.20
2018-09-21T23:55:54.422Z,67.10
2018-09-21T23:58:22.750Z,67.30
